createdAt,value
2019-04-14T00:01:45.759Z,1.30
2019-04-14T00:04:12.085Z,1.20
2019-04-14T00:06:39.619Z,1.20
2019-04-14T00:09:05.311Z,1.20
2019-04-14T00:11:32.225Z,1.00
2019-04-14T00:13:58.749Z,1.10
2019-04-14T00:16:24.897Z,1.30
2019-04-14T00:18:51.249Z,1.20
2019-04-14T00:21:17.274Z,1.20
2019-04-14T00:23:43.451Z,1.10
2019-04-14T00:26:09.429Z,1.10
2019-04-14T00:28:35.776Z,1.10
2019-04-14T00:31:02.328Z,1.20
2019-04-14T00:33:28.378Z,1.10
2019-04-14T00:35:55.837Z,1.10
2019-04-14T00:38:21.798Z,1.10
2019-04-14T00:40:47.628Z,1.20
2019-04-14T00:43:13.737Z,1.10
2019-04-14T00:45:45.288Z,1.10
2019-04-14T00:48:11.179Z,1.27
2019-04-14T00:50:34.079Z,1.13
2019-04-14T00:52:59.139Z,1.20
2019-04-14T00:55:27.077Z,1.10
2019-04-14T00:57:52.980Z,1.10
2019-04-14T01:00:19.268Z,1.00
2019-04-14T01:02:45.069Z,1.40
2019-04-14T01:05:11.247Z,1.10
2019-04-14T01:07:37.613Z,1.17
2019-04-14T01:10:04.022Z,1.30
2019-04-14T01:12:30.245Z,1.10
2019-04-14T01:14:56.599Z,1.20
2019-04-14T01:17:22.964Z,1.10
2019-04-14T01:19:50.545Z,1.00
2019-04-14T01:22:16.283Z,1.20
2019-04-14T01:24:42.486Z,0.93
2019-04-14T01:27:08.434Z,1.07
2019-04-14T01:29:34.781Z,1.10
2019-04-14T01:32:02.249Z,1.00
2019-04-14T01:34:28.152Z,1.33
2019-04-14T01:36:54.080Z,1.10
2019-04-14T01:39:20.323Z,1.07
2019-04-14T01:41:47.751Z,1.13
2019-04-14T01:44:13.519Z,1.00
2019-04-14T01:46:39.332Z,1.13
2019-04-14T01:49:05.620Z,1.00
2019-04-14T01:51:33.064Z,1.00
2019-04-14T01:53:59.400Z,1.10
2019-04-14T01:56:25.197Z,1.00
2019-04-14T01:58:51.245Z,1.30
2019-04-14T02:01:17.276Z,1.20
2019-04-14T02:03:43.673Z,1.00
2019-04-14T02:06:10.020Z,1.00
2019-04-14T02:08:37.204Z,1.03
2019-04-14T02:11:02.989Z,1.10
2019-04-14T02:13:29.020Z,1.00
2019-04-14T02:15:55.408Z,1.00
2019-04-14T02:18:24.958Z,1.00
2019-04-14T02:20:51.161Z,1.10
2019-04-14T02:23:17.097Z,1.03
2019-04-14T02:25:42.960Z,1.00
2019-04-14T02:28:09.175Z,1.00
2019-04-14T02:30:41.633Z,0.90
2019-04-14T02:33:33.694Z,1.20
2019-04-14T02:36:12.005Z,1.07
2019-04-14T02:38:40.856Z,1.00
2019-04-14T02:40:58.030Z,1.10
2019-04-14T02:43:22.097Z,1.10
2019-04-14T02:50:33.551Z,1.20
2019-04-14T02:53:00.489Z,0.90
2019-04-14T02:55:23.389Z,1.00
2019-04-14T02:57:52.804Z,1.00
2019-04-14T03:01:14.722Z,0.87
2019-04-14T03:02:44.615Z,0.80
2019-04-14T03:05:09.622Z,1.13
2019-04-14T03:07:46.138Z,1.10
2019-04-14T03:14:55.563Z,1.00
2019-04-14T03:17:42.589Z,1.00
2019-04-14T03:20:03.015Z,1.00
2019-04-14T03:22:25.953Z,0.90
2019-04-14T03:24:35.759Z,0.90
2019-04-14T03:27:10.171Z,0.90
2019-04-14T03:32:15.064Z,1.00
2019-04-14T03:39:26.843Z,0.87
2019-04-14T03:41:45.609Z,1.00
2019-04-14T03:44:11.816Z,1.00
2019-04-14T03:46:41.656Z,0.90
2019-04-14T03:49:10.064Z,1.10
2019-04-14T03:51:42.807Z,0.90
2019-04-14T03:53:51.971Z,1.00
2019-04-14T03:56:02.321Z,0.90
2019-04-14T03:58:24.623Z,0.90
2019-04-14T04:00:51.467Z,0.90
2019-04-14T04:03:17.384Z,0.80
2019-04-14T04:05:43.475Z,1.00
2019-04-14T04:08:09.512Z,0.93
2019-04-14T04:10:35.879Z,1.00
2019-04-14T04:13:02.207Z,0.90
2019-04-14T04:15:28.587Z,1.00
2019-04-14T04:17:55.903Z,1.00
2019-04-14T04:20:21.747Z,0.90
2019-04-14T04:22:47.707Z,0.90
2019-04-14T04:25:13.979Z,1.00
2019-04-14T04:27:40.362Z,0.90
2019-04-14T04:30:07.984Z,1.10
2019-04-14T04:32:34.072Z,0.80
2019-04-14T04:34:59.936Z,1.00
2019-04-14T04:37:25.835Z,1.00
2019-04-14T04:39:52.238Z,1.00
2019-04-14T04:42:19.746Z,0.90
2019-04-14T04:44:46.108Z,1.00
2019-04-14T04:47:12.240Z,0.83
2019-04-14T04:49:38.317Z,1.00
2019-04-14T04:52:04.184Z,1.07
2019-04-14T04:54:30.538Z,0.87
2019-04-14T04:56:58.009Z,1.10
2019-04-14T04:59:23.464Z,0.90
2019-04-14T05:01:49.571Z,0.80
2019-04-14T05:04:15.920Z,1.00
2019-04-14T05:06:42.298Z,0.80
2019-04-14T05:09:09.849Z,0.90
2019-04-14T05:11:36.111Z,0.90
2019-04-14T05:14:02.236Z,0.80
2019-04-14T05:16:28.158Z,0.80
2019-04-14T05:18:55.136Z,0.80
2019-04-14T05:21:21.327Z,0.90
2019-04-14T05:23:47.410Z,0.80
2019-04-14T05:26:13.413Z,0.80
2019-04-14T05:28:39.708Z,1.07
2019-04-14T05:31:05.861Z,0.80
2019-04-14T05:33:32.254Z,0.80
2019-04-14T05:35:59.816Z,0.90
2019-04-14T05:38:26.185Z,1.03
2019-04-14T05:40:51.799Z,0.90
2019-04-14T05:43:30.223Z,0.80
2019-04-14T05:45:44.051Z,0.90
2019-04-14T05:48:10.795Z,0.80
2019-04-14T05:50:37.643Z,1.00
2019-04-14T05:53:04.255Z,0.80
2019-04-14T05:55:30.498Z,0.80
2019-04-14T05:57:56.712Z,0.80
2019-04-14T06:00:23.396Z,0.80
2019-04-14T06:02:48.545Z,0.80
2019-04-14T06:05:14.809Z,1.00
2019-04-14T06:07:41.181Z,0.80
2019-04-14T06:10:07.517Z,0.80
2019-04-14T06:12:34.026Z,0.90
2019-04-14T06:15:00.384Z,0.70
2019-04-14T06:17:26.712Z,1.00
2019-04-14T06:19:53.077Z,1.00
2019-04-14T06:22:19.443Z,0.80
2019-04-14T06:24:45.808Z,0.90
2019-04-14T06:27:12.135Z,0.80
2019-04-14T06:29:38.471Z,0.83
2019-04-14T06:32:04.861Z,1.00
2019-04-14T06:34:31.189Z,0.90
2019-04-14T06:36:57.538Z,0.90
2019-04-14T06:39:23.871Z,0.80
2019-04-14T06:41:50.253Z,0.83
2019-04-14T06:44:16.584Z,0.90
2019-04-14T06:46:43.017Z,0.73
2019-04-14T06:49:09.386Z,0.70
2019-04-14T06:51:35.784Z,0.80
2019-04-14T06:54:02.149Z,0.80
2019-04-14T06:56:28.486Z,0.80
2019-04-14T06:58:54.896Z,0.87
2019-04-14T07:01:21.185Z,0.80
2019-04-14T07:03:47.507Z,0.80
2019-04-14T07:06:13.919Z,0.80
2019-04-14T07:08:40.260Z,0.80
2019-04-14T07:11:06.589Z,0.80
2019-04-14T07:13:33.022Z,0.90
2019-04-14T07:15:59.304Z,0.80
2019-04-14T07:18:25.638Z,0.80
2019-04-14T07:20:51.965Z,0.80
2019-04-14T07:23:18.324Z,0.83
2019-04-14T07:25:44.726Z,0.80
2019-04-14T07:28:11.138Z,0.80
2019-04-14T07:30:37.666Z,0.80
2019-04-14T07:33:04.042Z,0.80
2019-04-14T07:35:30.380Z,0.90
2019-04-14T07:37:56.749Z,0.90
2019-04-14T07:40:23.073Z,0.70
2019-04-14T07:42:49.514Z,0.80
2019-04-14T07:45:15.813Z,0.73
2019-04-14T07:47:42.148Z,0.93
2019-04-14T07:50:14.619Z,0.70
2019-04-14T07:52:34.874Z,0.80
2019-04-14T07:55:01.237Z,0.73
2019-04-14T07:57:27.561Z,0.90
2019-04-14T07:59:53.895Z,0.80
2019-04-14T08:02:20.277Z,0.80
2019-04-14T08:04:46.645Z,0.80
2019-04-14T08:07:13.019Z,0.80
2019-04-14T08:09:39.316Z,0.80
2019-04-14T08:12:05.658Z,0.90
2019-04-14T08:14:31.985Z,0.80
2019-04-14T08:16:58.355Z,0.80
2019-04-14T08:19:24.674Z,0.80
2019-04-14T08:21:51.005Z,0.80
2019-04-14T08:24:17.351Z,0.70
2019-04-14T08:26:43.822Z,0.80
2019-04-14T08:29:10.273Z,0.80
2019-04-14T08:31:36.582Z,0.80
2019-04-14T08:34:02.935Z,0.90
2019-04-14T08:36:29.313Z,0.90
2019-04-14T08:38:55.691Z,0.70
2019-04-14T08:41:22.155Z,0.90
2019-04-14T08:43:48.442Z,0.80
2019-04-14T08:46:14.789Z,0.80
2019-04-14T08:48:41.169Z,0.80
2019-04-14T08:51:07.507Z,0.70
2019-04-14T08:53:33.892Z,0.80
2019-04-14T08:56:00.221Z,0.80
2019-04-14T08:58:26.565Z,0.80
2019-04-14T09:00:52.955Z,0.80
2019-04-14T09:03:19.309Z,0.80
2019-04-14T09:05:45.690Z,0.70
2019-04-14T09:08:12.042Z,0.70
2019-04-14T09:10:38.384Z,0.80
2019-04-14T09:13:04.794Z,0.80
2019-04-14T09:15:31.274Z,0.80
2019-04-14T09:17:57.759Z,0.90
2019-04-14T09:20:24.148Z,0.90
2019-04-14T09:22:50.574Z,0.70
2019-04-14T09:25:17.007Z,0.90
2019-04-14T09:27:43.326Z,0.90
2019-04-14T09:30:09.627Z,0.77
2019-04-14T09:32:35.986Z,0.80
2019-04-14T09:35:02.323Z,0.80
2019-04-14T09:37:28.684Z,0.90
2019-04-14T09:39:55.078Z,0.80
2019-04-14T09:42:21.476Z,0.80
2019-04-14T09:44:47.861Z,0.87
2019-04-14T09:47:14.242Z,0.80
2019-04-14T09:49:40.587Z,0.90
2019-04-14T09:52:06.940Z,0.80
2019-04-14T09:54:33.332Z,0.90
2019-04-14T09:56:59.624Z,0.70
2019-04-14T09:59:26.017Z,0.90
2019-04-14T10:01:52.348Z,0.80
2019-04-14T10:04:18.718Z,0.80
2019-04-14T10:06:45.049Z,0.90
2019-04-14T10:09:11.421Z,0.83
2019-04-14T10:11:47.861Z,0.80
2019-04-14T10:14:04.303Z,0.70
2019-04-14T10:16:30.633Z,0.73
2019-04-14T10:18:56.964Z,0.80
2019-04-14T10:21:23.293Z,0.77
2019-04-14T10:23:49.632Z,0.80
2019-04-14T10:26:16.022Z,0.80
2019-04-14T10:28:42.346Z,0.80
2019-04-14T10:31:08.742Z,0.77
2019-04-14T10:33:35.130Z,0.90
2019-04-14T10:36:02.780Z,1.00
2019-04-14T10:38:27.846Z,0.80
2019-04-14T10:40:54.178Z,0.80
2019-04-14T10:43:22.507Z,0.90
2019-04-14T10:45:46.952Z,0.80
2019-04-14T10:48:13.249Z,0.80
2019-04-14T10:50:39.589Z,0.80
2019-04-14T10:53:05.955Z,0.80
2019-04-14T10:55:32.389Z,0.80
2019-04-14T10:57:58.899Z,0.80
2019-04-14T11:00:25.221Z,0.90
2019-04-14T11:02:51.582Z,0.80
2019-04-14T11:05:17.918Z,0.73
2019-04-14T11:07:44.322Z,0.80
2019-04-14T11:10:10.649Z,0.80
2019-04-14T11:12:36.993Z,0.90
2019-04-14T11:15:03.340Z,0.80
2019-04-14T11:17:29.754Z,0.70
2019-04-14T11:19:56.032Z,0.70
2019-04-14T11:22:22.365Z,0.70
2019-04-14T11:24:48.729Z,0.73
2019-04-14T11:27:15.068Z,0.70
2019-04-14T11:29:41.407Z,0.87
2019-04-14T11:32:07.779Z,0.90
2019-04-14T11:34:34.132Z,0.80
2019-04-14T11:37:00.465Z,0.80
2019-04-14T11:39:26.822Z,0.80
2019-04-14T11:41:53.229Z,0.70
2019-04-14T11:44:19.559Z,0.80
2019-04-14T11:46:45.938Z,0.90
2019-04-14T11:49:12.271Z,0.80
2019-04-14T11:51:38.667Z,0.80
2019-04-14T11:54:04.962Z,0.70
2019-04-14T11:56:31.312Z,0.80
2019-04-14T11:58:59.651Z,0.70
2019-04-14T12:01:23.988Z,0.80
2019-04-14T12:03:50.386Z,1.40
2019-04-14T12:06:16.759Z,0.80
2019-04-14T12:08:45.521Z,0.80
2019-04-14T12:11:09.504Z,0.80
2019-04-14T12:13:37.000Z,0.90
2019-04-14T12:16:02.176Z,0.80
2019-04-14T12:18:28.486Z,0.70
2019-04-14T12:20:54.822Z,0.90
2019-04-14T12:23:21.157Z,0.80
2019-04-14T12:25:47.512Z,0.80
2019-04-14T12:28:13.919Z,0.73
2019-04-14T12:30:40.280Z,0.70
2019-04-14T12:33:06.619Z,0.80
2019-04-14T12:35:33.160Z,1.10
2019-04-14T12:37:59.463Z,0.70
2019-04-14T12:40:25.802Z,0.90
2019-04-14T12:42:52.174Z,0.70
2019-04-14T12:45:18.512Z,0.93
2019-04-14T12:47:44.975Z,0.80
2019-04-14T12:50:11.295Z,0.80
2019-04-14T12:52:37.637Z,0.80
2019-04-14T12:55:04.026Z,0.80
2019-04-14T12:57:30.379Z,0.80
2019-04-14T12:59:56.785Z,0.70
2019-04-14T13:02:23.091Z,0.80
2019-04-14T13:04:49.463Z,0.83
2019-04-14T13:07:15.793Z,0.80
2019-04-14T13:09:42.163Z,0.73
2019-04-14T13:12:10.245Z,0.80
2019-04-14T13:14:34.862Z,0.80
2019-04-14T13:17:01.194Z,0.80
2019-04-14T13:19:27.521Z,0.80
2019-04-14T13:21:53.884Z,0.80
2019-04-14T13:24:20.260Z,0.80
2019-04-14T13:26:46.607Z,0.90
2019-04-14T13:29:12.950Z,0.80
2019-04-14T13:31:39.453Z,0.80
2019-04-14T13:34:05.785Z,0.80
2019-04-14T13:36:32.133Z,0.80
2019-04-14T13:38:58.498Z,0.90
2019-04-14T13:41:24.831Z,0.80
2019-04-14T13:43:51.168Z,0.90
2019-04-14T13:46:17.498Z,1.07
2019-04-14T13:48:43.926Z,0.90
2019-04-14T13:51:10.380Z,1.07
2019-04-14T13:53:36.792Z,1.00
2019-04-14T13:56:03.066Z,0.97
2019-04-14T13:58:29.412Z,1.40
2019-04-14T14:00:55.828Z,1.47
2019-04-14T14:03:22.245Z,2.43
2019-04-14T14:05:48.589Z,1.50
2019-04-14T14:08:14.957Z,2.10
2019-04-14T14:10:41.283Z,2.20
2019-04-14T14:13:08.764Z,2.00
2019-04-14T14:15:35.146Z,3.20
2019-04-14T14:18:01.498Z,2.10
2019-04-14T14:20:27.837Z,1.73
2019-04-14T14:22:59.581Z,1.60
2019-04-14T14:25:20.490Z,1.70
2019-04-14T14:27:46.877Z,1.40
2019-04-14T14:30:13.188Z,1.80
2019-04-14T14:32:39.503Z,1.70
2019-04-14T14:35:05.834Z,2.03
2019-04-14T14:37:32.175Z,1.80
2019-04-14T14:39:58.512Z,1.83
2019-04-14T14:42:24.913Z,2.37
2019-04-14T14:44:51.269Z,2.07
2019-04-14T14:47:17.597Z,1.90
2019-04-14T14:49:43.926Z,2.10
2019-04-14T14:52:10.261Z,2.37
2019-04-14T14:54:36.625Z,1.77
2019-04-14T14:57:02.955Z,1.77
2019-04-14T14:59:29.285Z,1.90
2019-04-14T15:01:55.609Z,2.40
2019-04-14T15:04:21.986Z,2.20
2019-04-14T15:06:48.348Z,2.00
2019-04-14T15:09:14.709Z,2.00
2019-04-14T15:11:41.040Z,1.80
2019-04-14T15:14:07.379Z,1.73
2019-04-14T15:16:33.845Z,2.30
2019-04-14T15:19:00.138Z,2.30
2019-04-14T15:21:26.411Z,2.57
2019-04-14T15:23:52.744Z,2.30
2019-04-14T15:26:19.073Z,2.20
2019-04-14T15:28:45.481Z,2.00
2019-04-14T15:31:11.869Z,2.40
2019-04-14T15:33:38.287Z,1.90
2019-04-14T15:36:04.563Z,2.23
2019-04-14T15:38:30.952Z,1.80
2019-04-14T15:40:57.293Z,1.90
2019-04-14T15:43:23.654Z,1.90
2019-04-14T15:45:50.034Z,2.10
2019-04-14T15:48:16.416Z,2.20
2019-04-14T15:50:42.749Z,1.90
2019-04-14T15:53:09.098Z,2.07
2019-04-14T15:55:35.457Z,2.07
2019-04-14T15:58:01.805Z,2.00
2019-04-14T16:00:28.153Z,2.00
2019-04-14T16:02:54.500Z,1.87
2019-04-14T16:05:20.942Z,1.80
2019-04-14T16:07:47.234Z,1.80
2019-04-14T16:10:13.725Z,1.83
2019-04-14T16:12:40.021Z,1.90
2019-04-14T16:15:06.351Z,2.00
2019-04-14T16:17:32.672Z,1.60
2019-04-14T16:19:59.107Z,1.87
2019-04-14T16:22:25.488Z,1.70
2019-04-14T16:24:51.790Z,1.77
2019-04-14T16:27:18.209Z,1.83
2019-04-14T16:29:44.541Z,1.43
2019-04-14T16:32:10.898Z,1.70
2019-04-14T16:34:37.240Z,1.60
2019-04-14T16:37:03.642Z,1.50
2019-04-14T16:39:30.006Z,1.83
2019-04-14T16:41:56.426Z,1.67
2019-04-14T16:44:22.763Z,1.50
2019-04-14T16:46:49.112Z,1.50
2019-04-14T16:49:15.475Z,1.60
2019-04-14T16:51:41.809Z,1.50
2019-04-14T16:54:08.155Z,1.60
2019-04-14T16:56:34.499Z,1.43
2019-04-14T16:59:00.816Z,1.30
2019-04-14T17:01:27.227Z,1.30
2019-04-14T17:03:53.508Z,1.93
2019-04-14T17:06:19.852Z,1.60
2019-04-14T17:08:46.175Z,1.60
2019-04-14T17:11:12.618Z,1.60
2019-04-14T17:13:39.008Z,1.50
2019-04-14T17:16:05.338Z,1.40
2019-04-14T17:18:31.722Z,1.20
2019-04-14T17:20:57.998Z,1.50
2019-04-14T17:23:24.329Z,1.40
2019-04-14T17:25:50.653Z,1.10
2019-04-14T17:28:17.033Z,1.70
2019-04-14T17:30:43.361Z,1.30
2019-04-14T17:33:09.738Z,1.30
2019-04-14T17:35:36.067Z,1.60
2019-04-14T17:38:02.416Z,1.30
2019-04-14T17:40:28.748Z,1.33
2019-04-14T17:42:55.076Z,1.40
2019-04-14T17:45:21.432Z,1.40
2019-04-14T17:47:47.795Z,1.50
2019-04-14T17:50:14.162Z,1.30
2019-04-14T17:52:40.494Z,1.50
2019-04-14T17:55:06.891Z,1.40
2019-04-14T17:57:33.223Z,1.40
2019-04-14T17:59:59.599Z,1.47
2019-04-14T18:02:25.938Z,1.40
2019-04-14T18:04:52.269Z,1.20
2019-04-14T18:07:18.693Z,1.50
2019-04-14T18:09:45.012Z,1.30
2019-04-14T18:12:11.352Z,1.40
2019-04-14T18:14:37.713Z,1.40
2019-04-14T18:17:04.015Z,1.40
2019-04-14T18:19:30.352Z,1.40
2019-04-14T18:21:56.696Z,1.50
2019-04-14T18:24:23.029Z,1.40
2019-04-14T18:26:49.375Z,1.27
2019-04-14T18:29:15.725Z,1.30
2019-04-14T18:31:43.314Z,1.20
2019-04-14T18:34:12.293Z,1.27
2019-04-14T18:36:35.990Z,1.20
2019-04-14T18:39:02.324Z,1.30
2019-04-14T18:41:28.658Z,1.30
2019-04-14T18:43:55.060Z,1.30
2019-04-14T18:46:21.391Z,1.27
2019-04-14T18:48:47.787Z,1.20
2019-04-14T18:51:14.324Z,1.50
2019-04-14T18:53:41.033Z,1.40
2019-04-14T18:56:07.353Z,1.20
2019-04-14T18:58:33.723Z,1.30
2019-04-14T19:01:00.048Z,1.20
2019-04-14T19:03:26.366Z,1.10
2019-04-14T19:05:52.703Z,1.13
2019-04-14T19:08:19.059Z,1.30
2019-04-14T19:10:45.378Z,1.23
2019-04-14T19:13:11.729Z,1.10
2019-04-14T19:15:38.094Z,1.30
2019-04-14T19:18:04.417Z,1.20
2019-04-14T19:20:30.779Z,1.30
2019-04-14T19:22:57.086Z,1.17
2019-04-14T19:25:23.415Z,1.10
2019-04-14T19:27:49.757Z,1.30
2019-04-14T19:30:16.089Z,1.23
2019-04-14T19:32:42.463Z,1.20
2019-04-14T19:35:08.835Z,1.20
2019-04-14T19:37:35.172Z,1.30
2019-04-14T19:40:01.524Z,1.40
2019-04-14T19:42:27.889Z,1.20
2019-04-14T19:44:54.243Z,1.27
2019-04-14T19:47:20.582Z,1.10
2019-04-14T19:49:46.994Z,1.30
2019-04-14T19:52:13.249Z,1.20
2019-04-14T19:54:39.622Z,1.10
2019-04-14T19:57:05.950Z,1.20
2019-04-14T19:59:32.300Z,1.30
2019-04-14T20:01:58.635Z,1.40
2019-04-14T20:04:24.956Z,1.20
2019-04-14T20:06:51.342Z,1.07
2019-04-14T20:09:17.664Z,1.07
2019-04-14T20:11:44.056Z,1.27
2019-04-14T20:14:10.347Z,1.20
2019-04-14T20:16:36.726Z,1.20
2019-04-14T20:19:10.242Z,1.10
2019-04-14T20:21:29.387Z,1.20
2019-04-14T20:23:55.880Z,1.10
2019-04-14T20:26:22.189Z,1.10
2019-04-14T20:28:48.532Z,1.20
2019-04-14T20:31:14.864Z,1.10
2019-04-14T20:33:41.180Z,1.20
2019-04-14T20:36:07.527Z,0.97
2019-04-14T20:38:33.877Z,1.20
2019-04-14T20:41:00.231Z,1.20
2019-04-14T20:43:26.560Z,1.10
2019-04-14T20:45:52.893Z,1.00
2019-04-14T20:48:19.226Z,1.00
2019-04-14T20:50:45.621Z,1.20
2019-04-14T20:53:11.921Z,1.00
2019-04-14T20:55:46.665Z,1.10
2019-04-14T20:58:04.599Z,1.10
2019-04-14T21:00:30.962Z,1.10
2019-04-14T21:02:57.330Z,1.00
2019-04-14T21:05:23.683Z,1.17
2019-04-14T21:07:49.964Z,1.17
2019-04-14T21:10:16.309Z,1.10
2019-04-14T21:12:42.616Z,1.00
2019-04-14T21:15:08.958Z,1.00
2019-04-14T21:17:35.321Z,1.00
2019-04-14T21:20:01.667Z,1.00
2019-04-14T21:22:27.993Z,1.20
2019-04-14T21:24:54.327Z,1.00
2019-04-14T21:27:20.693Z,0.90
2019-04-14T21:29:47.009Z,1.00
2019-04-14T21:32:13.344Z,0.90
2019-04-14T21:34:43.415Z,0.97
2019-04-14T21:37:09.716Z,1.10
2019-04-14T21:39:36.055Z,1.00
2019-04-14T21:42:02.407Z,1.00
2019-04-14T21:44:28.752Z,0.90
2019-04-14T21:46:55.164Z,1.10
2019-04-14T21:49:21.422Z,1.30
2019-04-14T21:51:47.751Z,0.90
2019-04-14T21:54:14.145Z,0.90
2019-04-14T21:56:40.422Z,1.30
2019-04-14T21:59:06.738Z,1.10
2019-04-14T22:01:33.086Z,1.20
2019-04-14T22:03:59.510Z,1.00
2019-04-14T22:06:25.789Z,1.13
2019-04-14T22:08:52.113Z,1.10
2019-04-14T22:11:18.445Z,1.10
2019-04-14T22:13:44.826Z,1.03
2019-04-14T22:16:11.158Z,1.10
2019-04-14T22:18:37.486Z,1.00
2019-04-14T22:21:03.866Z,1.10
2019-04-14T22:23:30.150Z,1.00
2019-04-14T22:25:56.492Z,1.10
2019-04-14T22:28:22.877Z,1.00
2019-04-14T22:30:49.216Z,1.40
2019-04-14T22:33:15.543Z,1.20
2019-04-14T22:35:41.868Z,1.20
2019-04-14T22:38:08.248Z,1.10
2019-04-14T22:40:34.638Z,1.00
2019-04-14T22:43:00.994Z,1.10
2019-04-14T22:45:27.325Z,1.10
2019-04-14T22:47:53.733Z,1.20
2019-04-14T22:50:20.127Z,1.00
2019-04-14T22:52:46.444Z,1.10
2019-04-14T22:55:12.849Z,0.97
2019-04-14T22:57:39.157Z,1.00
2019-04-14T23:00:05.540Z,1.13
2019-04-14T23:02:31.883Z,1.10
2019-04-14T23:04:58.337Z,1.00
2019-04-14T23:07:24.605Z,1.00
2019-04-14T23:09:51.031Z,1.00
2019-04-14T23:12:17.297Z,1.20
2019-04-14T23:14:43.677Z,1.03
2019-04-14T23:17:10.007Z,1.20
2019-04-14T23:19:36.357Z,0.90
2019-04-14T23:22:02.743Z,1.10
2019-04-14T23:24:29.082Z,1.10
2019-04-14T23:26:55.465Z,1.10
2019-04-14T23:29:21.816Z,1.00
2019-04-14T23:31:48.162Z,1.00
2019-04-14T23:34:14.548Z,1.00
2019-04-14T23:36:40.937Z,1.10
2019-04-14T23:39:07.221Z,1.53
2019-04-14T23:41:33.540Z,1.07
2019-04-14T23:43:59.875Z,1.00
2019-04-14T23:46:26.277Z,1.00
2019-04-14T23:48:52.614Z,1.00
2019-04-14T23:51:18.947Z,1.10
2019-04-14T23:53:45.266Z,1.20
2019-04-14T23:56:11.651Z,1.00
2019-04-14T23:58:38.012Z,1.00
